createdAt,value
2023-05-05T00:00:47.213Z,14.85
2023-05-05T00:03:32.531Z,14.86
2023-05-05T00:06:17.403Z,14.87
2023-05-05T00:09:02.662Z,14.87
2023-05-05T00:11:47.600Z,14.82
2023-05-05T00:14:32.574Z,14.81
2023-05-05T00:17:17.906Z,14.81
2023-05-05T00:20:02.881Z,14.79
2023-05-05T00:22:48.083Z,14.74
2023-05-05T00:25:33.127Z,14.69
2023-05-05T00:28:18.188Z,14.66
2023-05-05T00:31:03.253Z,14.64
2023-05-05T00:33:48.104Z,14.58
2023-05-05T00:36:33.109Z,14.49
2023-05-05T00:39:17.971Z,14.46
2023-05-05T00:42:02.990Z,14.44
2023-05-05T00:44:47.881Z,14.42
2023-05-05T00:47:33.021Z,14.39
2023-05-05T00:50:18.009Z,14.41
2023-05-05T00:53:03.029Z,14.35
2023-05-05T00:55:48.092Z,14.33
2023-05-05T00:58:33.128Z,14.31
2023-05-05T01:01:18.038Z,14.31
2023-05-05T01:04:03.046Z,14.28
2023-05-05T01:06:48.019Z,14.27
2023-05-05T01:09:32.841Z,14.28
2023-05-05T01:12:18.054Z,14.27
2023-05-05T01:15:02.893Z,14.24
2023-05-05T01:17:47.858Z,14.21
2023-05-05T01:20:32.828Z,14.20
2023-05-05T01:23:17.682Z,14.20
2023-05-05T01:26:02.840Z,14.16
2023-05-05T01:28:47.677Z,14.20
2023-05-05T01:31:32.849Z,14.18
2023-05-05T01:34:17.595Z,14.16
2023-05-05T01:37:02.598Z,14.15
2023-05-05T01:39:47.526Z,14.15
2023-05-05T01:42:32.592Z,14.12
2023-05-05T01:45:17.824Z,14.11
2023-05-05T01:48:02.915Z,14.03
2023-05-05T01:50:47.876Z,13.97
2023-05-05T01:53:32.759Z,13.93
2023-05-05T01:56:17.896Z,13.92
2023-05-05T01:59:02.840Z,13.88
2023-05-05T02:01:48.040Z,13.88
2023-05-05T02:04:32.970Z,13.81
2023-05-05T02:07:18.048Z,13.79
2023-05-05T02:10:03.119Z,13.81
2023-05-05T02:12:47.980Z,13.79
2023-05-05T02:15:33.087Z,13.76
2023-05-05T02:18:18.108Z,13.72
2023-05-05T02:21:03.185Z,13.66
2023-05-05T02:23:48.123Z,13.68
2023-05-05T02:26:33.215Z,13.67
2023-05-05T02:29:18.375Z,13.60
2023-05-05T02:32:03.290Z,13.54
2023-05-05T02:34:48.308Z,13.56
2023-05-05T02:37:33.138Z,13.57
2023-05-05T02:40:18.188Z,13.52
2023-05-05T02:43:03.117Z,13.46
2023-05-05T02:45:48.122Z,13.43
2023-05-05T02:48:33.055Z,13.40
2023-05-05T02:51:18.051Z,13.37
2023-05-05T02:54:03.004Z,13.35
2023-05-05T02:56:47.858Z,13.31
2023-05-05T02:59:32.920Z,13.27
2023-05-05T03:02:17.789Z,13.21
2023-05-05T03:05:02.865Z,13.19
2023-05-05T03:07:47.725Z,13.14
2023-05-05T03:10:32.870Z,13.10
2023-05-05T03:13:17.827Z,13.07
2023-05-05T03:16:03.001Z,13.07
2023-05-05T03:18:48.060Z,13.04
2023-05-05T03:21:32.955Z,13.03
2023-05-05T03:24:17.918Z,13.04
2023-05-05T03:27:02.790Z,13.03
2023-05-05T03:29:47.793Z,13.00
2023-05-05T03:32:32.754Z,12.98
2023-05-05T03:35:17.632Z,12.95
2023-05-05T03:38:02.542Z,12.96
2023-05-05T03:40:47.463Z,12.94
2023-05-05T03:43:32.565Z,12.96
2023-05-05T03:46:17.525Z,12.94
2023-05-05T03:49:02.612Z,12.93
2023-05-05T03:51:47.451Z,12.91
2023-05-05T03:54:32.554Z,12.89
2023-05-05T03:57:17.528Z,12.86
2023-05-05T04:00:02.629Z,12.83
2023-05-05T04:02:47.780Z,12.89
2023-05-05T04:05:32.839Z,12.91
2023-05-05T04:08:17.810Z,12.88
2023-05-05T04:11:02.739Z,12.93
2023-05-05T04:13:47.711Z,12.94
2023-05-05T04:16:32.623Z,12.95
2023-05-05T04:19:17.648Z,12.95
2023-05-05T04:22:02.546Z,12.88
2023-05-05T04:24:47.546Z,12.85
2023-05-05T04:27:32.643Z,12.84
2023-05-05T04:30:17.561Z,12.95
2023-05-05T04:33:02.626Z,13.06
2023-05-05T04:35:47.615Z,13.12
2023-05-05T04:38:32.891Z,13.20
2023-05-05T04:41:17.736Z,13.27
2023-05-05T04:44:02.621Z,13.35
2023-05-05T04:46:47.591Z,13.45
2023-05-05T04:49:32.612Z,13.52
2023-05-05T04:52:17.718Z,13.46
2023-05-05T04:55:03.679Z,13.54
2023-05-05T04:57:48.560Z,13.64
2023-05-05T05:00:33.570Z,13.67
2023-05-05T05:03:18.613Z,13.73
2023-05-05T05:06:03.400Z,13.77
2023-05-05T05:08:48.320Z,13.85
2023-05-05T05:11:33.425Z,13.94
2023-05-05T05:14:18.304Z,13.97
2023-05-05T05:17:03.348Z,13.95
2023-05-05T05:19:48.370Z,14.04
2023-05-05T05:22:33.331Z,14.10
2023-05-05T05:25:18.262Z,14.08
2023-05-05T05:28:10.284Z,14.12
2023-05-05T05:30:56.121Z,14.26
2023-05-05T05:33:41.149Z,14.75
2023-05-05T05:36:25.980Z,17.94
2023-05-05T05:39:11.017Z,20.48
2023-05-05T05:41:55.956Z,21.41
2023-05-05T05:44:41.069Z,23.01
2023-05-05T05:47:26.004Z,24.23
2023-05-05T05:50:11.262Z,25.19
2023-05-05T05:52:55.999Z,25.33
2023-05-05T05:55:41.077Z,25.34
2023-05-05T05:58:26.089Z,25.04
2023-05-05T06:01:11.034Z,25.39
2023-05-05T06:03:56.111Z,26.12
2023-05-05T06:06:40.918Z,25.86
2023-05-05T06:09:26.096Z,25.58
2023-05-05T06:12:11.053Z,26.05
2023-05-05T06:14:56.127Z,26.29
2023-05-05T06:17:41.044Z,26.65
2023-05-05T06:20:25.768Z,27.02
2023-05-05T06:23:10.799Z,26.72
2023-05-05T06:25:55.796Z,27.67
2023-05-05T06:28:40.803Z,28.02
2023-05-05T06:31:25.684Z,28.75
2023-05-05T06:34:10.701Z,29.40
2023-05-05T06:36:55.645Z,29.91
2023-05-05T06:39:40.515Z,30.52
2023-05-05T06:42:25.469Z,30.79
2023-05-05T06:45:10.124Z,30.97
2023-05-05T06:47:55.073Z,31.56
2023-05-05T06:50:39.910Z,31.75
2023-05-05T06:53:24.956Z,32.11
2023-05-05T06:56:09.679Z,32.52
2023-05-05T06:58:54.699Z,32.72
2023-05-05T07:01:39.544Z,33.38
2023-05-05T07:04:24.616Z,33.71
2023-05-05T07:07:09.427Z,33.94
2023-05-05T07:09:54.452Z,34.08
2023-05-05T07:12:39.417Z,33.26
2023-05-05T07:15:29.359Z,33.05
2023-05-05T07:18:14.757Z,31.65
2023-05-05T07:20:59.957Z,31.26
2023-05-05T07:23:44.839Z,30.66
2023-05-05T07:26:29.909Z,29.80
2023-05-05T07:29:14.805Z,29.41
2023-05-05T07:31:59.913Z,28.36
2023-05-05T07:34:44.660Z,26.76
2023-05-05T07:37:29.839Z,25.12
2023-05-05T07:40:14.874Z,23.61
2023-05-05T07:42:59.853Z,22.61
2023-05-05T07:45:44.893Z,21.91
2023-05-05T07:48:29.795Z,21.47
2023-05-05T07:51:14.878Z,21.06
2023-05-05T07:53:59.822Z,20.91
2023-05-05T07:56:44.780Z,21.03
2023-05-05T07:59:29.676Z,21.06
2023-05-05T08:02:14.725Z,21.14
2023-05-05T08:04:59.836Z,21.13
2023-05-05T08:07:44.780Z,20.56
2023-05-05T08:10:29.883Z,20.24
2023-05-05T08:13:14.940Z,19.86
2023-05-05T08:16:00.010Z,19.97
2023-05-05T08:18:45.006Z,20.25
2023-05-05T08:21:30.215Z,19.97
2023-05-05T08:24:15.329Z,20.00
2023-05-05T08:27:00.346Z,19.85
2023-05-05T08:29:45.539Z,20.06
2023-05-05T08:32:30.521Z,20.17
2023-05-05T08:35:15.692Z,20.52
2023-05-05T08:38:00.507Z,20.63
2023-05-05T08:40:45.592Z,20.93
2023-05-05T08:43:30.705Z,21.13
2023-05-05T08:46:15.632Z,20.91
2023-05-05T08:49:00.609Z,20.75
2023-05-05T08:51:45.539Z,20.59
2023-05-05T08:54:30.747Z,20.70
2023-05-05T08:57:15.564Z,20.84
2023-05-05T09:00:00.779Z,21.30
2023-05-05T09:02:45.848Z,21.22
2023-05-05T09:05:30.733Z,20.63
2023-05-05T09:08:15.804Z,20.25
2023-05-05T09:11:00.887Z,20.38
2023-05-05T09:13:46.142Z,20.46
2023-05-05T09:16:31.079Z,20.45
2023-05-05T09:19:16.007Z,20.77
2023-05-05T09:22:01.002Z,21.29
2023-05-05T09:24:46.056Z,21.58
2023-05-05T09:27:31.072Z,21.90
2023-05-05T09:30:15.885Z,21.92
2023-05-05T09:33:01.114Z,22.16
2023-05-05T09:35:46.109Z,22.45
2023-05-05T09:38:31.224Z,22.20
2023-05-05T09:41:16.148Z,22.37
2023-05-05T09:44:01.206Z,21.98
2023-05-05T09:46:46.229Z,21.79
2023-05-05T09:49:31.240Z,21.64
2023-05-05T09:52:16.299Z,21.72
2023-05-05T09:55:01.679Z,20.93
2023-05-05T09:57:46.812Z,20.99
2023-05-05T10:00:31.761Z,20.89
2023-05-05T10:03:16.895Z,20.99
2023-05-05T10:06:02.015Z,21.29
2023-05-05T10:08:46.861Z,21.57
2023-05-05T10:11:31.867Z,21.50
2023-05-05T10:14:16.803Z,21.54
2023-05-05T10:17:02.007Z,21.62
2023-05-05T10:19:46.951Z,21.49
2023-05-05T10:22:31.982Z,21.74
2023-05-05T10:25:16.998Z,21.79
2023-05-05T10:28:02.134Z,22.07
2023-05-05T10:30:47.011Z,22.36
2023-05-05T10:33:32.580Z,21.86
2023-05-05T10:36:17.576Z,21.92
2023-05-05T10:39:02.471Z,21.79
2023-05-05T10:41:47.483Z,21.56
2023-05-05T10:44:32.510Z,21.47
2023-05-05T10:47:17.558Z,21.58
2023-05-05T10:50:02.478Z,21.24
2023-05-05T10:52:47.579Z,21.13
2023-05-05T10:55:32.464Z,21.15
2023-05-05T10:58:17.533Z,21.30
2023-05-05T11:01:02.655Z,21.69
2023-05-05T11:03:47.608Z,21.53
2023-05-05T11:06:32.720Z,21.79
2023-05-05T11:09:17.623Z,22.06
2023-05-05T11:12:02.504Z,21.86
2023-05-05T11:14:47.431Z,22.06
2023-05-05T11:17:32.565Z,21.70
2023-05-05T11:20:17.570Z,21.81
2023-05-05T11:23:02.560Z,21.79
2023-05-05T11:25:47.641Z,21.68
2023-05-05T11:28:32.577Z,21.58
2023-05-05T11:31:17.716Z,22.13
2023-05-05T11:34:02.609Z,22.18
2023-05-05T11:36:47.614Z,22.08
2023-05-05T11:39:32.545Z,22.50
2023-05-05T11:42:17.661Z,22.54
2023-05-05T11:45:02.713Z,22.93
2023-05-05T11:47:47.724Z,22.69
2023-05-05T11:50:32.726Z,22.71
2023-05-05T11:53:17.696Z,23.03
2023-05-05T11:56:02.740Z,23.12
2023-05-05T11:58:47.657Z,22.82
2023-05-05T12:01:32.843Z,22.87
2023-05-05T12:04:18.082Z,22.99
2023-05-05T12:07:02.895Z,22.85
2023-05-05T12:09:47.864Z,22.82
2023-05-05T12:12:32.926Z,22.98
2023-05-05T12:15:18.190Z,22.99
2023-05-05T12:18:03.483Z,23.28
2023-05-05T12:20:48.488Z,23.20
2023-05-05T12:23:33.348Z,23.29
2023-05-05T12:26:18.396Z,23.21
2023-05-05T12:29:03.519Z,23.28
2023-05-05T12:31:48.579Z,22.96
2023-05-05T12:34:33.675Z,22.90
2023-05-05T12:37:18.496Z,22.80
2023-05-05T12:40:03.503Z,22.81
2023-05-05T12:42:48.462Z,23.06
2023-05-05T12:45:33.539Z,22.77
2023-05-05T12:48:18.519Z,22.76
2023-05-05T12:51:03.659Z,23.18
2023-05-05T12:53:48.699Z,23.60
2023-05-05T12:56:33.576Z,23.94
2023-05-05T12:59:18.675Z,24.13
2023-05-05T13:02:03.697Z,24.54
2023-05-05T13:04:48.697Z,24.14
2023-05-05T13:07:33.736Z,24.17
2023-05-05T13:10:18.840Z,23.58
2023-05-05T13:13:03.910Z,23.35
2023-05-05T13:15:48.816Z,23.36
2023-05-05T13:18:33.830Z,23.49
2023-05-05T13:21:18.671Z,24.02
2023-05-05T13:26:51.863Z,23.94
2023-05-05T13:29:36.761Z,23.55
2023-05-05T13:32:21.796Z,23.52
2023-05-05T13:35:06.692Z,23.29
2023-05-05T13:37:51.597Z,23.20
2023-05-05T13:40:36.482Z,23.47
2023-05-05T13:43:21.611Z,23.28
2023-05-05T13:46:18.761Z,23.33
2023-05-05T13:49:04.624Z,22.80
2023-05-05T13:51:49.543Z,22.67
2023-05-05T13:54:34.626Z,22.66
2023-05-05T13:57:19.702Z,22.83
2023-05-05T14:00:04.718Z,22.67
2023-05-05T14:02:49.962Z,22.59
2023-05-05T14:05:34.811Z,22.49
2023-05-05T14:08:19.937Z,22.59
2023-05-05T14:11:04.968Z,22.83
2023-05-05T14:13:50.032Z,22.96
2023-05-05T14:16:35.126Z,23.07
2023-05-05T14:19:19.836Z,22.97
2023-05-05T14:22:04.936Z,23.00
2023-05-05T14:24:49.900Z,23.16
2023-05-05T14:27:34.999Z,23.09
2023-05-05T14:30:19.903Z,22.96
2023-05-05T14:33:04.987Z,23.05
2023-05-05T14:35:49.824Z,22.96
2023-05-05T14:38:35.030Z,22.59
2023-05-05T14:41:20.111Z,22.43
2023-05-05T14:44:04.986Z,22.43
2023-05-05T14:46:51.114Z,22.55
2023-05-05T14:49:35.929Z,22.94
2023-05-05T14:52:21.032Z,23.40
2023-05-05T14:55:06.186Z,23.72
2023-05-05T14:57:51.136Z,23.94
2023-05-05T15:00:36.168Z,24.08
2023-05-05T15:03:21.198Z,23.97
2023-05-05T15:06:06.074Z,23.54
2023-05-05T15:08:50.977Z,23.18
2023-05-05T15:11:36.156Z,23.20
2023-05-05T15:14:21.127Z,23.39
2023-05-05T15:17:06.349Z,23.54
2023-05-05T15:19:51.246Z,23.48
2023-05-05T15:22:36.284Z,23.47
2023-05-05T15:25:21.316Z,22.99
2023-05-05T15:28:06.331Z,23.04
2023-05-05T15:30:51.346Z,23.07
2023-05-05T15:33:36.283Z,23.11
2023-05-05T15:36:21.263Z,23.13
2023-05-05T15:39:06.229Z,23.22
2023-05-05T15:41:51.362Z,23.31
2023-05-05T15:44:36.284Z,23.39
2023-05-05T15:47:21.236Z,23.51
2023-05-05T15:50:06.364Z,23.65
2023-05-05T15:52:51.342Z,23.47
2023-05-05T15:55:36.378Z,23.54
2023-05-05T15:58:21.439Z,23.47
2023-05-05T16:01:06.753Z,23.36
2023-05-05T16:03:51.648Z,23.39
2023-05-05T16:06:36.707Z,23.37
2023-05-05T16:09:21.835Z,23.41
2023-05-05T16:12:06.768Z,23.43
2023-05-05T16:14:51.930Z,23.35
2023-05-05T16:17:36.901Z,23.31
2023-05-05T16:20:21.944Z,23.12
2023-05-05T16:23:06.971Z,22.46
2023-05-05T16:25:51.972Z,22.10
2023-05-05T16:28:36.962Z,22.17
2023-05-05T16:31:21.980Z,21.63
2023-05-05T16:34:07.011Z,21.26
2023-05-05T16:36:51.924Z,20.57
2023-05-05T16:39:37.047Z,19.96
2023-05-05T16:42:22.000Z,19.49
2023-05-05T16:45:07.326Z,19.30
2023-05-05T16:47:51.913Z,19.30
2023-05-05T16:50:36.937Z,19.32
2023-05-05T16:53:22.018Z,19.67
2023-05-05T16:56:06.955Z,19.98
2023-05-05T16:58:52.019Z,20.25
2023-05-05T17:01:36.998Z,20.49
2023-05-05T17:04:22.074Z,20.52
2023-05-05T17:07:06.975Z,20.54
2023-05-05T17:09:52.031Z,20.63
2023-05-05T17:12:37.047Z,20.66
2023-05-05T17:15:22.056Z,20.75
2023-05-05T17:18:07.126Z,20.83
2023-05-05T17:20:52.136Z,20.86
2023-05-05T17:23:37.283Z,20.81
2023-05-05T17:26:22.278Z,20.71
2023-05-05T17:29:07.431Z,20.62
2023-05-05T17:31:52.469Z,20.57
2023-05-05T17:34:37.404Z,20.60
2023-05-05T17:37:22.350Z,20.56
2023-05-05T17:40:07.453Z,20.47
2023-05-05T17:42:52.436Z,20.43
2023-05-05T17:45:37.431Z,20.45
2023-05-05T17:48:22.452Z,20.49
2023-05-05T17:51:07.298Z,20.60
2023-05-05T17:53:52.365Z,20.60
2023-05-05T17:56:37.336Z,20.49
2023-05-05T17:59:22.448Z,20.39
2023-05-05T18:02:07.488Z,20.17
2023-05-05T18:04:52.433Z,20.08
2023-05-05T18:07:37.541Z,19.97
2023-05-05T18:10:22.429Z,19.89
2023-05-05T18:13:07.531Z,19.84
2023-05-05T18:15:52.552Z,19.77
2023-05-05T18:18:37.673Z,19.58
2023-05-05T18:21:22.402Z,19.40
2023-05-05T18:24:18.792Z,19.27
2023-05-05T18:27:04.952Z,19.08
2023-05-05T18:29:50.057Z,18.99
2023-05-05T18:32:35.169Z,19.00
2023-05-05T18:35:20.140Z,18.88
2023-05-05T18:38:05.196Z,18.86
2023-05-05T18:40:50.087Z,18.68
2023-05-05T18:43:35.233Z,18.58
2023-05-05T18:46:20.289Z,18.50
2023-05-05T18:49:05.498Z,18.41
2023-05-05T18:51:50.517Z,18.42
2023-05-05T18:54:37.626Z,18.45
2023-05-05T18:57:22.985Z,18.44
2023-05-05T19:00:07.743Z,18.37
2023-05-05T19:02:53.010Z,18.31
2023-05-05T19:05:37.894Z,18.30
2023-05-05T19:08:22.904Z,18.23
2023-05-05T19:11:07.816Z,18.13
2023-05-05T19:13:52.704Z,18.10
2023-05-05T19:16:37.675Z,17.99
2023-05-05T19:19:22.506Z,17.96
2023-05-05T19:22:07.466Z,17.83
2023-05-05T19:24:52.266Z,17.75
2023-05-05T19:27:37.273Z,17.67
2023-05-05T19:30:22.202Z,17.58
2023-05-05T19:33:06.994Z,17.50
2023-05-05T19:35:51.685Z,17.41
2023-05-05T19:38:36.563Z,17.36
2023-05-05T19:41:21.645Z,17.33
2023-05-05T19:44:06.636Z,17.23
2023-05-05T19:46:51.963Z,17.13
2023-05-05T19:49:36.811Z,17.06
2023-05-05T19:52:21.894Z,17.09
2023-05-05T19:55:07.087Z,17.07
2023-05-05T19:57:51.760Z,17.05
2023-05-05T20:00:36.777Z,17.02
2023-05-05T20:03:21.736Z,17.01
2023-05-05T20:06:06.859Z,17.03
2023-05-05T20:08:51.805Z,17.02
2023-05-05T20:11:36.834Z,17.05
2023-05-05T20:14:21.752Z,17.05
2023-05-05T20:17:06.839Z,17.07
2023-05-05T20:19:51.695Z,17.08
2023-05-05T20:22:38.124Z,17.10
2023-05-05T20:25:24.080Z,17.15
2023-05-05T20:28:09.019Z,17.14
2023-05-05T20:30:53.958Z,17.14
2023-05-05T20:33:38.824Z,17.12
2023-05-05T20:36:23.874Z,17.16
2023-05-05T20:39:08.817Z,17.13
2023-05-05T20:41:53.712Z,17.14
2023-05-05T20:44:38.816Z,17.17
2023-05-05T20:47:23.874Z,17.22
2023-05-05T20:50:09.030Z,17.23
2023-05-05T20:52:53.920Z,17.19
2023-05-05T20:55:39.020Z,17.17
2023-05-05T20:58:23.845Z,17.20
2023-05-05T21:01:08.965Z,17.11
2023-05-05T21:03:54.153Z,17.02
2023-05-05T21:06:39.158Z,17.03
2023-05-05T21:09:24.241Z,16.99
2023-05-05T21:12:09.122Z,16.96
2023-05-05T21:14:54.258Z,16.91
2023-05-05T21:17:39.241Z,16.82
2023-05-05T21:20:24.308Z,16.76
2023-05-05T21:23:09.286Z,16.75
2023-05-05T21:25:54.212Z,16.71
2023-05-05T21:28:39.176Z,16.66
2023-05-05T21:31:24.173Z,16.58
2023-05-05T21:34:09.332Z,16.51
2023-05-05T21:36:54.253Z,16.41
2023-05-05T21:39:39.331Z,16.34
2023-05-05T21:42:24.239Z,16.26
2023-05-05T21:45:09.323Z,16.16
2023-05-05T21:47:54.372Z,16.10
2023-05-05T21:50:39.235Z,16.04
2023-05-05T21:53:24.354Z,15.99
2023-05-05T21:56:09.317Z,15.95
2023-05-05T21:58:54.632Z,15.95
2023-05-05T22:01:39.521Z,15.95
2023-05-05T22:04:24.480Z,15.97
2023-05-05T22:07:09.334Z,15.97
2023-05-05T22:09:54.320Z,15.97
2023-05-05T22:12:39.340Z,15.98
2023-05-05T22:15:27.571Z,15.97
2023-05-05T22:18:15.014Z,15.93
2023-05-05T22:21:00.158Z,15.93
2023-05-05T22:23:45.015Z,15.90
2023-05-05T22:26:30.046Z,15.89
2023-05-05T22:29:14.886Z,15.87
2023-05-05T22:31:59.916Z,15.85
2023-05-05T22:34:44.693Z,15.84
2023-05-05T22:37:29.865Z,15.82
2023-05-05T22:40:14.851Z,15.82
2023-05-05T22:42:59.740Z,15.83
2023-05-05T22:45:44.732Z,15.79
2023-05-05T22:48:29.688Z,15.79
2023-05-05T22:51:14.870Z,15.80
2023-05-05T22:53:59.715Z,15.75
2023-05-05T22:56:44.718Z,15.74
2023-05-05T22:59:29.657Z,15.75
2023-05-05T23:02:14.707Z,15.75
2023-05-05T23:04:59.589Z,15.78
2023-05-05T23:07:44.524Z,15.75
2023-05-05T23:10:29.579Z,15.71
2023-05-05T23:13:14.792Z,15.68
2023-05-05T23:16:00.041Z,15.68
2023-05-05T23:18:44.944Z,15.55
2023-05-05T23:21:32.065Z,15.46
2023-05-05T23:24:19.052Z,15.40
2023-05-05T23:27:03.901Z,15.42
2023-05-05T23:29:48.973Z,15.38
2023-05-05T23:32:34.085Z,15.32
2023-05-05T23:35:19.143Z,15.35
2023-05-05T23:38:04.208Z,15.41
2023-05-05T23:40:49.266Z,15.44
2023-05-05T23:43:34.446Z,15.44
2023-05-05T23:46:19.664Z,15.44
2023-05-05T23:49:04.713Z,15.44
2023-05-05T23:51:49.599Z,15.47
2023-05-05T23:54:34.762Z,15.49
2023-05-05T23:57:19.773Z,15.50
